Time;durP1;ratioP1;P1;durP2;ratioP2;P2;SDS_P1;SDS_P2;PMS_P1;PMS_P2;Temp;Humidity;BMP_temperature;BMP_pressure;BME280_temperature;BME280_humidity;BME280_pressure;Samples;Min_cycle;Max_cycle;Signal;HPM_P1;HPM_P2
2022/09/03 00:02:25;;;;;;;;;;;20.60;99.90;;;;;;5095966;28;19955;-77
2022/09/03 00:05:10;;;;;;;;;;;20.60;99.90;;;;;;5095522;28;19973;-79
2022/09/03 00:07:41;;;;;;;;;;;20.50;99.90;;;;;;5095591;28;19912;-81
2022/09/03 00:10:10;;;;;;;;;;;20.60;99.90;;;;;;5096199;28;19908;-81
2022/09/03 00:12:39;;;;;;;;;;;20.90;99.90;;;;;;5096082;28;19908;-80
2022/09/03 00:15:06;;;;;;;;;;;21.10;99.90;;;;;;5095549;28;19908;-82
2022/09/03 00:17:55;;;;;;;;;;;21.10;99.90;;;;;;5095348;28;19913;-77
2022/09/03 00:20:26;;;;;;;;;;;21.20;99.90;;;;;;5084363;28;19915;-78
2022/09/03 00:22:55;;;;;;;;;;;21.20;99.90;;;;;;5095559;28;19915;-80
2022/09/03 00:25:47;;;;;;;;;;;21.20;99.90;;;;;;5095258;28;19912;-77
2022/09/03 00:28:17;;;;;;;;;;;21.20;99.90;;;;;;5063911;28;19909;-78
2022/09/03 00:30:44;;;;;;;;;;;21.20;99.90;;;;;;5095448;28;20041;-80
2022/09/03 00:33:17;;;;;;;;;;;21.30;99.90;;;;;;5095175;28;19908;-78
2022/09/03 00:35:53;;;;;;;;;;;21.30;99.90;;;;;;5095045;28;19915;-76
2022/09/03 00:38:21;;;;;;;;;;;21.20;99.90;;;;;;5095221;28;20037;-77
2022/09/03 00:41:05;;;;;;;;;;;21.00;99.90;;;;;;5095115;28;19917;-77
2022/09/03 00:43:41;;;;;;;;;;;21.10;99.90;;;;;;5094816;28;19908;-80
2022/09/03 00:46:19;;;;;;;;;;;21.10;99.90;;;;;;5094073;28;19920;-79
2022/09/03 00:49:11;;;;;;;;;;;21.10;99.90;;;;;;5094854;28;20372;-82
2022/09/03 00:52:08;;;;;;;;;;;21.20;99.90;;;;;;5094833;28;19908;-78
2022/09/03 00:54:40;;;;;;;;;;;21.10;99.90;;;;;;5077996;28;19909;-75
2022/09/03 00:57:16;;;;;;;;;;;21.20;99.90;;;;;;5094825;28;20007;-80
2022/09/03 00:59:51;;;;;;;;;;;21.20;99.90;;;;;;5076184;28;20392;-78
2022/09/03 01:02:31;;;;;;;;;;;21.20;99.90;;;;;;5094593;28;19957;-77
2022/09/03 01:05:09;;;;;;;;;;;21.00;99.90;;;;;;5094911;28;19908;-76
2022/09/03 01:07:38;;;;;;;;;;;21.00;99.90;;;;;;5076008;28;20334;-76
2022/09/03 01:10:11;;;;;;;;;;;21.10;99.90;;;;;;5094365;28;19908;-80
2022/09/03 01:12:39;;;;;;;;;;;21.20;99.90;;;;;;5094962;28;19908;-79
2022/09/03 01:15:13;;;;;;;;;;;21.30;99.90;;;;;;5094552;28;20061;-79
2022/09/03 01:17:49;;;;;;;;;;;21.10;99.90;;;;;;5094558;28;19908;-76
2022/09/03 01:20:18;;;;;;;;;;;20.80;99.90;;;;;;5094401;28;19908;-78
2022/09/03 01:22:44;;;;;;;;;;;20.70;99.90;;;;;;5094199;28;19908;-80
2022/09/03 01:25:10;;;;;;;;;;;20.70;99.90;;;;;;5094141;28;19912;-79
2022/09/03 01:27:54;;;;;;;;;;;20.90;99.90;;;;;;5094317;28;19961;-77
2022/09/03 01:30:22;;;;;;;;;;;21.00;99.90;;;;;;5094091;28;19908;-79
2022/09/03 01:33:24;;;;;;;;;;;21.00;99.90;;;;;;5094309;28;20010;-75
2022/09/03 01:36:01;;;;;;;;;;;21.00;99.90;;;;;;5012084;28;19917;-79
2022/09/03 01:38:27;;;;;;;;;;;21.00;99.90;;;;;;5083366;28;19908;-80
2022/09/03 01:42:12;;;;;;;;;;;21.10;99.90;;;;;;5094113;28;19931;-81
2022/09/03 01:43:50;;;;;;;;;;;21.10;99.90;;;;;;5093295;28;19999;-81
2022/09/03 01:46:23;;;;;;;;;;;21.10;99.90;;;;;;5075373;28;19923;-79
2022/09/03 01:49:04;;;;;;;;;;;21.00;99.90;;;;;;5094239;28;19908;-81
2022/09/03 01:51:30;;;;;;;;;;;20.90;99.90;;;;;;5093805;28;19957;-80
2022/09/03 01:54:09;;;;;;;;;;;20.90;99.90;;;;;;5093776;28;19908;-82
2022/09/03 01:56:34;;;;;;;;;;;20.90;99.90;;;;;;5093699;28;19908;-80
2022/09/03 01:59:05;;;;;;;;;;;20.90;99.90;;;;;;5093850;28;19908;-76
2022/09/03 02:01:44;;;;;;;;;;;20.90;99.90;;;;;;5075351;28;19915;-80
2022/09/03 02:04:15;;;;;;;;;;;20.80;99.90;;;;;;5093891;28;20004;-81
2022/09/03 02:06:41;;;;;;;;;;;20.70;99.90;;;;;;5093750;28;19951;-79
2022/09/03 02:09:07;;;;;;;;;;;20.60;99.90;;;;;;5093860;28;20377;-78
2022/09/03 02:11:32;;;;;;;;;;;20.60;99.90;;;;;;5094405;28;19995;-76
2022/09/03 02:13:59;;;;;;;;;;;20.60;99.90;;;;;;5093646;28;19952;-79
2022/09/03 02:16:27;;;;;;;;;;;20.70;99.90;;;;;;5093800;28;19908;-76
2022/09/03 02:19:04;;;;;;;;;;;20.50;99.90;;;;;;5093572;28;19908;-80
2022/09/03 02:21:34;;;;;;;;;;;20.50;99.90;;;;;;5093602;28;19912;-79
2022/09/03 02:24:00;;;;;;;;;;;20.50;99.90;;;;;;5093379;28;19908;-80
2022/09/03 02:26:25;;;;;;;;;;;20.60;99.90;;;;;;5092898;28;19912;-80
2022/09/03 02:28:52;;;;;;;;;;;20.60;99.90;;;;;;5075241;28;19912;-76
2022/09/03 02:31:18;;;;;;;;;;;20.50;99.90;;;;;;5093726;28;19953;-78
2022/09/03 02:33:45;;;;;;;;;;;20.40;99.90;;;;;;5093412;28;19908;-82
2022/09/03 02:36:12;;;;;;;;;;;20.20;99.90;;;;;;5093403;28;20003;-77
2022/09/03 02:38:40;;;;;;;;;;;20.40;99.90;;;;;;5093896;28;19931;-80
2022/09/03 02:41:06;;;;;;;;;;;20.30;99.90;;;;;;5093331;28;19966;-78
2022/09/03 02:43:46;;;;;;;;;;;20.40;99.90;;;;;;5093295;28;19915;-76
2022/09/03 02:46:16;;;;;;;;;;;20.50;99.90;;;;;;5053153;28;20335;-79
2022/09/03 02:48:41;;;;;;;;;;;20.40;99.90;;;;;;5053033;28;20377;-81
2022/09/03 02:51:07;;;;;;;;;;;20.40;99.90;;;;;;5053023;28;19954;-81
2022/09/03 02:53:32;;;;;;;;;;;20.30;99.90;;;;;;5051759;28;19909;-75
2022/09/03 02:55:59;;;;;;;;;;;20.20;99.90;;;;;;5053094;28;20377;-79
2022/09/03 02:58:25;;;;;;;;;;;20.20;99.90;;;;;;5052947;28;19908;-77
2022/09/03 03:00:51;;;;;;;;;;;20.30;99.90;;;;;;5052978;28;19975;-78
2022/09/03 03:03:17;;;;;;;;;;;20.30;99.90;;;;;;5052984;28;20448;-80
2022/09/03 03:05:49;;;;;;;;;;;20.30;99.90;;;;;;5052848;28;19921;-80
2022/09/03 03:08:16;;;;;;;;;;;20.30;99.90;;;;;;5052860;28;19951;-77
2022/09/03 03:10:43;;;;;;;;;;;20.40;99.90;;;;;;5056206;28;19958;-78
2022/09/03 03:13:09;;;;;;;;;;;20.20;99.90;;;;;;5057296;28;19909;-76
2022/09/03 03:15:35;;;;;;;;;;;20.20;99.90;;;;;;5056372;28;20270;-76
2022/09/03 03:18:01;;;;;;;;;;;20.20;99.90;;;;;;5056333;28;19909;-77
2022/09/03 03:20:27;;;;;;;;;;;20.30;99.90;;;;;;5056262;28;19913;-78
2022/09/03 03:22:53;;;;;;;;;;;20.40;99.90;;;;;;5054929;28;19916;-79
2022/09/03 03:25:19;;;;;;;;;;;20.40;99.90;;;;;;5056130;28;19913;-80
2022/09/03 03:27:44;;;;;;;;;;;20.30;99.90;;;;;;5056278;28;20339;-78
2022/09/03 03:30:11;;;;;;;;;;;20.30;99.90;;;;;;5056073;28;19909;-79
2022/09/03 03:32:37;;;;;;;;;;;20.30;99.90;;;;;;5056082;28;19915;-79
2022/09/03 03:35:03;;;;;;;;;;;20.30;99.90;;;;;;5056047;28;19913;-80
2022/09/03 03:37:29;;;;;;;;;;;20.20;99.90;;;;;;5056017;28;20432;-79
2022/09/03 03:39:55;;;;;;;;;;;20.40;99.90;;;;;;5055987;28;19909;-77
2022/09/03 03:42:20;;;;;;;;;;;20.40;99.90;;;;;;5056360;28;19992;-78
2022/09/03 03:44:46;;;;;;;;;;;20.40;99.90;;;;;;5075225;28;20065;-79
2022/09/03 03:47:11;;;;;;;;;;;20.30;99.90;;;;;;5096198;28;19920;-77
2022/09/03 03:49:37;;;;;;;;;;;20.00;99.90;;;;;;5095940;28;19914;-79
2022/09/03 03:52:03;;;;;;;;;;;20.00;99.90;;;;;;5095940;28;19916;-79
2022/09/03 03:54:29;;;;;;;;;;;20.10;99.90;;;;;;5095884;28;19958;-76
2022/09/03 03:56:55;;;;;;;;;;;20.00;99.90;;;;;;5095792;28;19962;-77
2022/09/03 03:59:21;;;;;;;;;;;20.10;99.90;;;;;;5095846;28;19908;-76
2022/09/03 04:01:48;;;;;;;;;;;20.10;99.90;;;;;;5095817;28;19908;-78
2022/09/03 04:04:14;;;;;;;;;;;19.90;99.90;;;;;;5077473;28;19915;-78
2022/09/03 04:06:39;;;;;;;;;;;19.90;99.90;;;;;;5095582;28;19912;-77
2022/09/03 04:09:05;;;;;;;;;;;19.90;99.90;;;;;;5095655;28;19912;-75
2022/09/03 04:11:31;;;;;;;;;;;20.00;99.90;;;;;;5096143;28;19909;-76
2022/09/03 04:13:56;;;;;;;;;;;20.10;99.90;;;;;;5095486;28;19915;-81
2022/09/03 04:16:23;;;;;;;;;;;20.10;99.90;;;;;;5095601;28;19912;-77
2022/09/03 04:18:49;;;;;;;;;;;20.00;99.90;;;;;;5095387;28;20356;-77
2022/09/03 04:21:16;;;;;;;;;;;20.10;99.90;;;;;;5095221;28;19908;-81
2022/09/03 04:23:43;;;;;;;;;;;20.20;99.90;;;;;;5095533;28;19912;-81
2022/09/03 04:26:10;;;;;;;;;;;20.30;99.90;;;;;;5095192;28;19961;-79
2022/09/03 04:28:35;;;;;;;;;;;20.20;99.90;;;;;;5095178;28;19914;-78
2022/09/03 04:31:02;;;;;;;;;;;20.10;99.90;;;;;;5095183;28;19908;-77
2022/09/03 04:33:29;;;;;;;;;;;20.00;99.90;;;;;;5095262;28;19912;-79
2022/09/03 04:36:04;;;;;;;;;;;20.00;99.90;;;;;;5095070;28;19908;-78
2022/09/03 04:38:31;;;;;;;;;;;20.00;99.90;;;;;;5095080;28;19961;-80
2022/09/03 04:40:58;;;;;;;;;;;20.00;99.90;;;;;;5094956;28;19908;-79
2022/09/03 04:43:23;;;;;;;;;;;19.90;99.90;;;;;;5094817;28;19915;-76
2022/09/03 04:45:49;;;;;;;;;;;19.80;99.90;;;;;;5094292;28;19920;-79
2022/09/03 04:48:14;;;;;;;;;;;19.90;99.90;;;;;;5095009;28;19912;-79
2022/09/03 04:50:40;;;;;;;;;;;19.90;99.90;;;;;;5076586;28;20000;-78
2022/09/03 04:53:06;;;;;;;;;;;19.90;99.90;;;;;;5094702;28;19915;-78
2022/09/03 04:55:35;;;;;;;;;;;19.90;99.90;;;;;;5094663;28;19919;-80
2022/09/03 04:58:01;;;;;;;;;;;19.90;99.90;;;;;;5094608;28;19908;-78
2022/09/03 05:00:26;;;;;;;;;;;19.90;99.90;;;;;;5094591;28;20407;-78
2022/09/03 05:02:52;;;;;;;;;;;19.90;99.90;;;;;;5094535;28;20387;-78
2022/09/03 05:05:18;;;;;;;;;;;19.90;99.90;;;;;;5094525;28;20402;-76
2022/09/03 05:07:43;;;;;;;;;;;19.90;99.90;;;;;;5094486;28;19999;-79
2022/09/03 05:10:19;;;;;;;;;;;19.90;99.90;;;;;;5094453;28;19916;-79
2022/09/03 05:12:48;;;;;;;;;;;19.70;99.90;;;;;;5095195;28;19915;-77
2022/09/03 05:15:14;;;;;;;;;;;19.60;99.90;;;;;;5094486;28;19915;-77
2022/09/03 05:17:40;;;;;;;;;;;19.50;99.90;;;;;;5094467;28;20314;-79
2022/09/03 05:20:09;;;;;;;;;;;19.60;99.90;;;;;;5094737;28;19965;-79
2022/09/03 05:22:34;;;;;;;;;;;19.50;99.90;;;;;;5094328;28;19914;-78
2022/09/03 05:25:00;;;;;;;;;;;19.60;99.90;;;;;;5094268;28;20366;-76
2022/09/03 05:27:26;;;;;;;;;;;19.60;99.90;;;;;;5094273;28;19914;-75
2022/09/03 05:29:51;;;;;;;;;;;19.50;99.90;;;;;;5094540;28;19908;-81
2022/09/03 05:32:17;;;;;;;;;;;19.40;99.90;;;;;;5093678;28;19908;-78
2022/09/03 05:34:42;;;;;;;;;;;19.30;99.90;;;;;;5094042;28;19912;-78
2022/09/03 05:37:08;;;;;;;;;;;19.20;99.90;;;;;;5075867;28;19915;-76
2022/09/03 05:39:34;;;;;;;;;;;19.20;99.90;;;;;;5093996;28;19915;-80
2022/09/03 05:41:59;;;;;;;;;;;19.30;99.90;;;;;;5094288;28;20002;-79
2022/09/03 05:44:25;;;;;;;;;;;19.30;99.90;;;;;;5093678;28;19916;-76
2022/09/03 05:46:52;;;;;;;;;;;19.20;99.90;;;;;;5094015;28;19923;-78
2022/09/03 05:49:17;;;;;;;;;;;19.30;99.90;;;;;;5094378;28;19915;-76
2022/09/03 05:51:43;;;;;;;;;;;19.60;99.90;;;;;;5094107;28;20314;-78
2022/09/03 05:54:09;;;;;;;;;;;19.70;99.90;;;;;;5094184;28;20284;-81
2022/09/03 05:56:36;;;;;;;;;;;19.60;99.90;;;;;;5093801;28;19961;-79
2022/09/03 05:59:04;;;;;;;;;;;19.70;99.90;;;;;;5075572;28;20264;-77
2022/09/03 06:01:31;;;;;;;;;;;19.80;99.90;;;;;;5094055;28;19915;-80
2022/09/03 06:03:57;;;;;;;;;;;19.80;99.90;;;;;;5093722;28;19914;-81
2022/09/03 06:06:24;;;;;;;;;;;19.80;99.90;;;;;;5093854;28;20329;-79
2022/09/03 06:09:01;;;;;;;;;;;19.40;99.90;;;;;;5093719;28;19908;-80
2022/09/03 06:11:28;;;;;;;;;;;19.20;99.90;;;;;;5093930;28;19908;-78
2022/09/03 06:13:55;;;;;;;;;;;19.20;99.90;;;;;;5094362;28;19908;-76
2022/09/03 06:16:21;;;;;;;;;;;19.40;99.90;;;;;;5093590;28;20007;-77
2022/09/03 06:18:47;;;;;;;;;;;19.30;99.90;;;;;;5093602;28;19908;-82
2022/09/03 06:21:13;;;;;;;;;;;19.10;99.90;;;;;;5093561;28;19915;-80
2022/09/03 06:23:40;;;;;;;;;;;19.30;99.90;;;;;;5093512;28;19983;-78
2022/09/03 06:26:07;;;;;;;;;;;19.20;99.90;;;;;;5093488;28;19912;-77
2022/09/03 06:28:33;;;;;;;;;;;19.30;99.90;;;;;;5093729;28;19918;-80
2022/09/03 06:31:01;;;;;;;;;;;19.20;99.90;;;;;;5093487;28;19908;-76
2022/09/03 06:33:29;;;;;;;;;;;19.30;99.90;;;;;;5093440;28;20284;-79
2022/09/03 06:35:58;;;;;;;;;;;19.30;99.90;;;;;;5075318;28;19912;-80
2022/09/03 06:38:25;;;;;;;;;;;19.70;99.90;;;;;;5093519;28;20317;-78
2022/09/03 06:41:03;;;;;;;;;;;19.50;99.90;;;;;;5093364;28;20433;-79
2022/09/03 06:43:29;;;;;;;;;;;19.50;99.90;;;;;;5093389;28;20028;-77
2022/09/03 06:45:56;;;;;;;;;;;19.60;99.90;;;;;;5096680;28;19928;-76
2022/09/03 06:48:22;;;;;;;;;;;19.60;99.90;;;;;;5097308;28;19915;-78
2022/09/03 06:50:57;;;;;;;;;;;19.80;99.90;;;;;;5097116;28;19912;-79
2022/09/03 06:53:24;;;;;;;;;;;19.80;99.90;;;;;;5097172;28;19915;-78
2022/09/03 06:55:53;;;;;;;;;;;19.90;99.90;;;;;;5078868;28;19999;-77
2022/09/03 06:58:19;;;;;;;;;;;20.30;99.90;;;;;;5096986;28;19960;-78
2022/09/03 07:00:44;;;;;;;;;;;20.80;99.90;;;;;;5096930;28;20007;-80
2022/09/03 07:03:10;;;;;;;;;;;21.50;99.90;;;;;;5096925;28;19908;-80
2022/09/03 07:05:36;;;;;;;;;;;21.90;99.90;;;;;;5096867;28;19913;-79
2022/09/03 07:08:02;;;;;;;;;;;21.60;99.90;;;;;;5096821;28;20284;-81
2022/09/03 07:10:27;;;;;;;;;;;21.80;99.90;;;;;;5096775;28;19908;-77
2022/09/03 07:12:54;;;;;;;;;;;22.10;99.90;;;;;;5097448;28;19909;-79
2022/09/03 07:15:20;;;;;;;;;;;21.90;99.90;;;;;;5096671;28;20326;-79
2022/09/03 07:17:46;;;;;;;;;;;22.10;99.90;;;;;;5096652;28;19908;-81
2022/09/03 07:20:11;;;;;;;;;;;22.70;99.90;;;;;;5096819;28;20354;-82
2022/09/03 07:22:37;;;;;;;;;;;23.60;99.90;;;;;;5096556;28;19918;-80
2022/09/03 07:25:02;;;;;;;;;;;23.30;99.90;;;;;;5096506;28;20291;-78
2022/09/03 07:27:29;;;;;;;;;;;22.70;99.90;;;;;;5096403;28;19933;-78
2022/09/03 07:29:54;;;;;;;;;;;22.50;99.90;;;;;;5096399;28;19909;-80
2022/09/03 07:32:20;;;;;;;;;;;21.60;99.90;;;;;;5096366;28;19916;-78
2022/09/03 07:34:46;;;;;;;;;;;21.30;99.90;;;;;;5096233;28;19991;-77
2022/09/03 07:37:11;;;;;;;;;;;20.80;99.90;;;;;;5077183;28;19908;-76
2022/09/03 07:39:37;;;;;;;;;;;20.80;99.90;;;;;;5096203;28;20284;-79
2022/09/03 07:42:07;;;;;;;;;;;21.70;99.90;;;;;;5096674;28;19908;-77
2022/09/03 07:44:33;;;;;;;;;;;22.40;99.90;;;;;;5095880;28;19920;-78
2022/09/03 07:46:59;;;;;;;;;;;23.00;99.90;;;;;;5096243;28;19916;-79
2022/09/03 07:49:25;;;;;;;;;;;23.30;99.90;;;;;;5096374;28;20403;-80
2022/09/03 07:51:52;;;;;;;;;;;23.20;99.90;;;;;;5096182;28;19970;-78
2022/09/03 07:54:19;;;;;;;;;;;24.00;99.90;;;;;;5095673;28;19916;-78
2022/09/03 07:56:45;;;;;;;;;;;23.70;99.90;;;;;;5095679;28;20342;-79
2022/09/03 07:59:11;;;;;;;;;;;23.10;99.90;;;;;;5096214;28;19951;-81
2022/09/03 08:01:37;;;;;;;;;;;23.30;99.90;;;;;;5095746;28;19957;-81
2022/09/03 08:04:05;;;;;;;;;;;23.80;99.90;;;;;;5095741;28;19918;-78
2022/09/03 08:06:31;;;;;;;;;;;25.70;99.90;;;;;;5077451;28;20291;-80
2022/09/03 08:08:59;;;;;;;;;;;25.80;99.10;;;;;;5095584;28;19939;-78
2022/09/03 08:11:26;;;;;;;;;;;25.50;99.90;;;;;;5095588;28;19999;-79
2022/09/03 08:14:00;;;;;;;;;;;25.10;99.90;;;;;;5077919;28;19947;-79
2022/09/03 08:16:26;;;;;;;;;;;24.90;99.90;;;;;;5095992;28;19908;-79
2022/09/03 08:18:52;;;;;;;;;;;23.80;99.90;;;;;;5095532;28;20003;-78
2022/09/03 08:21:18;;;;;;;;;;;23.40;99.90;;;;;;5095690;28;19939;-82
2022/09/03 08:23:46;;;;;;;;;;;24.10;99.90;;;;;;5077119;28;20394;-81
2022/09/03 08:26:12;;;;;;;;;;;25.80;99.90;;;;;;5095142;28;19935;-76
2022/09/03 08:28:38;;;;;;;;;;;27.60;97.20;;;;;;5077010;28;19908;-79
2022/09/03 08:31:11;;;;;;;;;;;29.10;93.50;;;;;;5077047;28;19908;-80
2022/09/03 08:33:38;;;;;;;;;;;28.00;92.80;;;;;;5095737;28;19915;-76
2022/09/03 08:36:03;;;;;;;;;;;26.30;95.00;;;;;;5095119;28;20368;-80
2022/09/03 08:38:31;;;;;;;;;;;26.70;96.90;;;;;;5095135;28;19970;-81
2022/09/03 08:41:15;;;;;;;;;;;27.40;94.80;;;;;;5095409;28;19914;-82
2022/09/03 08:43:49;;;;;;;;;;;27.30;93.70;;;;;;5094934;28;19909;-80
2022/09/03 08:46:15;;;;;;;;;;;27.50;92.30;;;;;;5095206;28;19916;-77
2022/09/03 08:48:41;;;;;;;;;;;26.60;94.70;;;;;;5095426;28;19969;-78
2022/09/03 08:51:07;;;;;;;;;;;27.40;93.70;;;;;;5094854;28;19908;-82
2022/09/03 08:53:33;;;;;;;;;;;27.20;92.30;;;;;;5095031;28;19957;-81
2022/09/03 08:56:02;;;;;;;;;;;26.40;93.20;;;;;;5094781;28;19908;-80
2022/09/03 08:58:31;;;;;;;;;;;25.50;95.10;;;;;;5094652;28;19913;-79
2022/09/03 09:01:12;;;;;;;;;;;26.40;96.30;;;;;;5076476;28;19961;-80
2022/09/03 09:03:56;;;;;;;;;;;30.00;91.60;;;;;;5094714;28;19908;-82
2022/09/03 09:06:38;;;;;;;;;;;30.70;86.20;;;;;;5093741;28;19977;-78
2022/09/03 09:09:33;;;;;;;;;;;31.50;85.50;;;;;;5094448;28;19908;-82
2022/09/03 09:12:14;;;;;;;;;;;33.20;78.90;;;;;;5022406;28;20449;-80
2022/09/03 09:14:51;;;;;;;;;;;33.80;74.60;;;;;;5094599;28;19908;-80
2022/09/03 09:17:30;;;;;;;;;;;32.90;72.90;;;;;;5094653;28;20364;-80
2022/09/03 09:20:03;;;;;;;;;;;33.30;71.90;;;;;;5094452;28;20360;-81
2022/09/03 09:22:30;;;;;;;;;;;31.00;74.90;;;;;;5094542;28;19915;-77
2022/09/03 09:24:59;;;;;;;;;;;30.00;78.00;;;;;;5094256;28;19951;-80
2022/09/03 09:27:25;;;;;;;;;;;27.90;80.80;;;;;;5094078;28;19912;-78
2022/09/03 09:29:52;;;;;;;;;;;25.70;88.00;;;;;;5075962;28;20383;-78
2022/09/03 09:32:18;;;;;;;;;;;24.30;94.80;;;;;;5094202;28;19909;-80
2022/09/03 09:34:44;;;;;;;;;;;23.50;98.20;;;;;;5094587;28;19915;-81
2022/09/03 09:37:12;;;;;;;;;;;23.40;99.90;;;;;;5093990;28;19908;-79
2022/09/03 09:39:38;;;;;;;;;;;26.90;95.00;;;;;;5094114;28;20379;-81
2022/09/03 09:42:08;;;;;;;;;;;30.70;83.40;;;;;;5094051;28;20295;-78
2022/09/03 09:44:38;;;;;;;;;;;32.10;77.90;;;;;;5093684;28;19916;-80
2022/09/03 09:47:05;;;;;;;;;;;29.80;78.20;;;;;;5094300;28;20015;-81
2022/09/03 09:49:49;;;;;;;;;;;28.80;84.20;;;;;;5093920;28;19931;-79
2022/09/03 09:52:15;;;;;;;;;;;27.30;84.20;;;;;;5094034;28;19999;-78
2022/09/03 09:54:42;;;;;;;;;;;25.60;90.60;;;;;;5094025;28;20445;-80
2022/09/03 09:57:17;;;;;;;;;;;25.50;92.30;;;;;;5094094;28;19958;-79
2022/09/03 09:59:44;;;;;;;;;;;25.20;93.90;;;;;;5093836;28;20403;-79
2022/09/03 10:02:13;;;;;;;;;;;25.60;92.30;;;;;;5093745;28;20004;-77
2022/09/03 10:04:39;;;;;;;;;;;25.50;93.30;;;;;;5093710;28;19915;-77
2022/09/03 10:07:25;;;;;;;;;;;25.20;93.20;;;;;;5075442;28;20296;-82
2022/09/03 10:10:13;;;;;;;;;;;26.40;94.10;;;;;;5093739;28;20361;-79
2022/09/03 10:12:58;;;;;;;;;;;28.10;86.60;;;;;;5094471;28;20272;-78
2022/09/03 10:15:36;;;;;;;;;;;27.50;88.30;;;;;;5093672;28;20279;-79
2022/09/03 10:18:06;;;;;;;;;;;26.30;88.80;;;;;;5094610;28;20399;-78
2022/09/03 10:20:46;;;;;;;;;;;25.10;91.50;;;;;;5097693;28;19908;-78
2022/09/03 10:23:17;;;;;;;;;;;24.10;93.70;;;;;;5097747;28;19908;-78
2022/09/03 10:26:06;;;;;;;;;;;23.90;95.40;;;;;;5097602;28;20485;-76
2022/09/03 10:28:37;;;;;;;;;;;24.00;95.90;;;;;;5097881;28;19909;-77
2022/09/03 10:31:17;;;;;;;;;;;24.10;95.70;;;;;;5097785;28;20408;-78
2022/09/03 10:33:56;;;;;;;;;;;25.10;93.70;;;;;;5079266;28;19943;-76
2022/09/03 10:36:27;;;;;;;;;;;25.30;92.40;;;;;;5097403;28;20372;-78
2022/09/03 10:38:58;;;;;;;;;;;25.80;92.30;;;;;;5097356;28;19932;-80
2022/09/03 10:41:30;;;;;;;;;;;25.70;91.40;;;;;;5096448;28;19908;-80
2022/09/03 10:43:57;;;;;;;;;;;26.10;90.80;;;;;;5095999;28;20419;-80
2022/09/03 10:46:26;;;;;;;;;;;25.80;90.30;;;;;;5097352;28;19923;-83
2022/09/03 10:49:10;;;;;;;;;;;26.20;88.60;;;;;;5097453;28;19999;-81
2022/09/03 10:51:36;;;;;;;;;;;29.20;86.10;;;;;;5097211;28;19908;-79
2022/09/03 10:54:07;;;;;;;;;;;37.20;72.00;;;;;;5097335;28;19908;-79
2022/09/03 10:56:33;;;;;;;;;;;38.70;58.50;;;;;;5096489;28;19912;-78
2022/09/03 10:59:17;;;;;;;;;;;34.00;60.30;;;;;;5095057;28;19960;-80
2022/09/03 11:01:58;;;;;;;;;;;30.20;65.60;;;;;;5094993;28;19994;-81
2022/09/03 11:04:48;;;;;;;;;;;27.70;73.40;;;;;;5095017;28;19908;-81
2022/09/03 11:07:16;;;;;;;;;;;28.10;76.00;;;;;;5094897;28;19912;-83
2022/09/03 11:09:45;;;;;;;;;;;33.00;68.10;;;;;;5095125;28;19915;-83
2022/09/03 11:12:25;;;;;;;;;;;36.80;62.40;;;;;;5095486;28;19916;-80
2022/09/03 11:14:56;;;;;;;;;;;38.50;54.10;;;;;;5096785;28;20287;-79
2022/09/03 11:18:00;;;;;;;;;;;35.90;55.50;;;;;;5096673;28;19953;-79
2022/09/03 11:20:26;;;;;;;;;;;36.10;54.40;;;;;;5014455;28;19916;-82
2022/09/03 11:22:56;;;;;;;;;;;33.50;55.10;;;;;;5014537;28;19910;-82
2022/09/03 11:25:24;;;;;;;;;;;32.60;58.30;;;;;;5055131;28;20283;-79
2022/09/03 11:27:57;;;;;;;;;;;33.60;56.80;;;;;;5096756;28;19908;-80
2022/09/03 11:30:39;;;;;;;;;;;33.40;56.40;;;;;;5095565;28;19912;-80
2022/09/03 11:33:07;;;;;;;;;;;34.60;56.40;;;;;;5096790;28;19954;-78
2022/09/03 11:35:32;;;;;;;;;;;35.30;54.50;;;;;;5096614;28;19908;-81
2022/09/03 11:38:02;;;;;;;;;;;35.00;55.10;;;;;;5096287;28;20265;-80
2022/09/03 11:40:31;;;;;;;;;;;33.70;55.00;;;;;;5096197;28;19908;-79
2022/09/03 11:43:04;;;;;;;;;;;31.90;57.00;;;;;;5096171;28;19908;-80
2022/09/03 11:45:30;;;;;;;;;;;32.50;56.30;;;;;;5095755;28;20288;-79
2022/09/03 11:47:55;;;;;;;;;;;35.10;53.80;;;;;;5096195;28;19908;-80
2022/09/03 11:50:31;;;;;;;;;;;38.00;50.40;;;;;;5096085;28;19909;-79
2022/09/03 11:53:06;;;;;;;;;;;34.30;51.70;;;;;;5095847;28;19915;-82
2022/09/03 11:55:46;;;;;;;;;;;35.00;53.30;;;;;;5095840;28;20002;-82
2022/09/03 11:58:17;;;;;;;;;;;32.30;53.00;;;;;;5096060;28;19908;-77
2022/09/03 12:00:43;;;;;;;;;;;30.50;57.00;;;;;;5077325;28;19912;-81
2022/09/03 12:03:12;;;;;;;;;;;34.20;53.20;;;;;;5096220;28;20283;-80
2022/09/03 12:05:56;;;;;;;;;;;34.30;50.60;;;;;;5095821;28;19962;-78
2022/09/03 12:08:34;;;;;;;;;;;31.00;53.80;;;;;;5095665;28;19914;-79
2022/09/03 12:11:02;;;;;;;;;;;31.00;55.10;;;;;;5095621;28;19908;-82
2022/09/03 12:13:35;;;;;;;;;;;30.70;55.10;;;;;;5096104;28;20313;-79
2022/09/03 12:16:04;;;;;;;;;;;31.40;53.90;;;;;;5095923;28;19915;-80
2022/09/03 12:18:31;;;;;;;;;;;32.90;52.80;;;;;;5095535;28;20357;-81
2022/09/03 12:20:59;;;;;;;;;;;35.70;51.00;;;;;;5095375;28;19908;-82
2022/09/03 12:23:45;;;;;;;;;;;34.50;50.00;;;;;;5095553;28;19908;-82
2022/09/03 12:26:13;;;;;;;;;;;35.70;49.60;;;;;;5094769;28;19916;-79
2022/09/03 12:28:40;;;;;;;;;;;36.50;48.50;;;;;;5095313;28;19995;-82
2022/09/03 12:31:19;;;;;;;;;;;37.30;48.50;;;;;;5095484;28;20391;-78
2022/09/03 12:33:45;;;;;;;;;;;36.20;46.60;;;;;;5095308;28;19962;-82
2022/09/03 12:36:12;;;;;;;;;;;37.80;46.70;;;;;;5095262;28;19947;-80
2022/09/03 12:38:38;;;;;;;;;;;36.40;46.70;;;;;;5095109;28;19957;-80
2022/09/03 12:41:03;;;;;;;;;;;34.30;49.70;;;;;;5095047;28;19909;-79
2022/09/03 12:43:29;;;;;;;;;;;36.10;49.00;;;;;;5094967;28;19909;-81
2022/09/03 12:45:56;;;;;;;;;;;37.10;47.40;;;;;;5094422;28;19999;-78
2022/09/03 12:48:22;;;;;;;;;;;37.70;48.10;;;;;;5094998;28;20056;-80
2022/09/03 12:50:59;;;;;;;;;;;37.60;47.00;;;;;;5094925;28;19978;-80
2022/09/03 12:53:25;;;;;;;;;;;35.90;46.90;;;;;;5095087;28;19961;-80
2022/09/03 12:55:53;;;;;;;;;;;35.30;47.60;;;;;;5094985;28;19934;-78
2022/09/03 12:58:18;;;;;;;;;;;36.10;47.70;;;;;;5094777;28;19995;-80
2022/09/03 13:00:46;;;;;;;;;;;34.90;46.90;;;;;;5094759;28;19963;-82
2022/09/03 13:03:16;;;;;;;;;;;33.70;48.50;;;;;;5094582;28;20372;-80
2022/09/03 13:05:47;;;;;;;;;;;32.10;49.70;;;;;;5094596;28;19961;-78
2022/09/03 13:08:33;;;;;;;;;;;32.30;50.60;;;;;;5094513;28;19947;-82
2022/09/03 13:11:01;;;;;;;;;;;34.40;49.10;;;;;;5075592;28;20362;-81
2022/09/03 13:13:35;;;;;;;;;;;35.20;48.30;;;;;;5095194;28;19991;-78
2022/09/03 13:16:10;;;;;;;;;;;36.60;47.00;;;;;;5094375;28;19915;-83
2022/09/03 13:18:46;;;;;;;;;;;37.90;45.70;;;;;;5094322;28;19951;-84
2022/09/03 13:21:17;;;;;;;;;;;39.10;44.60;;;;;;5094564;28;19947;-82
2022/09/03 13:23:52;;;;;;;;;;;39.70;43.90;;;;;;5094373;28;19912;-80
2022/09/03 13:26:27;;;;;;;;;;;40.50;43.90;;;;;;5075944;28;20269;-77
2022/09/03 13:28:58;;;;;;;;;;;41.50;43.80;;;;;;5094242;28;19913;-82
2022/09/03 13:31:27;;;;;;;;;;;38.90;42.30;;;;;;5094145;28;19908;-76
2022/09/03 13:33:56;;;;;;;;;;;36.80;44.10;;;;;;5094139;28;19957;-78
2022/09/03 13:36:28;;;;;;;;;;;33.40;47.10;;;;;;5094046;28;19908;-78
2022/09/03 13:39:02;;;;;;;;;;;32.40;48.40;;;;;;5094175;28;20391;-80
2022/09/03 13:41:31;;;;;;;;;;;29.70;50.60;;;;;;5094341;28;19908;-79
2022/09/03 13:44:01;;;;;;;;;;;28.30;53.10;;;;;;5093788;28;19920;-78
2022/09/03 13:46:30;;;;;;;;;;;27.10;55.20;;;;;;5093900;28;19916;-81
2022/09/03 13:51:58;;;;;;;;;;;27.20;57.30;;;;;;5093629;28;19957;-77
2022/09/03 13:54:26;;;;;;;;;;;27.20;57.30;;;;;;5093514;28;19918;-80
2022/09/03 13:57:03;;;;;;;;;;;29.00;56.60;;;;;;5093753;28;20382;-79
2022/09/03 13:59:42;;;;;;;;;;;29.90;55.10;;;;;;5075615;28;20288;-82
2022/09/03 14:02:28;;;;;;;;;;;30.50;53.30;;;;;;5093945;28;20423;-78
2022/09/03 14:04:56;;;;;;;;;;;30.80;52.30;;;;;;5079335;28;19908;-79
2022/09/03 14:07:40;;;;;;;;;;;33.60;52.70;;;;;;5093602;28;19935;-79
2022/09/03 14:10:25;;;;;;;;;;;34.90;50.80;;;;;;5094248;28;19908;-79
2022/09/03 14:12:59;;;;;;;;;;;36.00;49.00;;;;;;5093755;28;19994;-77
2022/09/03 14:15:31;;;;;;;;;;;32.30;50.70;;;;;;5093575;28;19916;-77
2022/09/03 14:17:56;;;;;;;;;;;30.20;53.50;;;;;;5093638;28;19916;-80
2022/09/03 14:20:23;;;;;;;;;;;29.00;55.00;;;;;;5093558;28;19908;-79
2022/09/03 14:22:52;;;;;;;;;;;31.40;52.80;;;;;;5093592;28;19908;-82
2022/09/03 14:25:19;;;;;;;;;;;29.70;52.40;;;;;;5093458;28;20261;-76
2022/09/03 14:27:44;;;;;;;;;;;28.20;55.80;;;;;;5093603;28;19908;-83
2022/09/03 14:30:29;;;;;;;;;;;28.10;55.00;;;;;;5093484;28;19909;-81
2022/09/03 14:32:54;;;;;;;;;;;30.00;54.50;;;;;;5075098;28;19916;-82
2022/09/03 14:35:20;;;;;;;;;;;33.20;53.30;;;;;;5093635;28;19908;-83
2022/09/03 14:37:57;;;;;;;;;;;33.50;49.70;;;;;;5093462;28;19908;-83